Time;durP1;ratioP1;P1;durP2;ratioP2;P2;SDS_P1;SDS_P2;PMS_P1;PMS_P2;Temp;Humidity;BMP_temperature;BMP_pressure;BME280_temperature;BME280_humidity;BME280_pressure;Samples;Min_cycle;Max_cycle;Signal;HPM_P1;HPM_P2
2024/04/03 00:00:25;;;;;;;11.73;3.22;;;;;;;7.67;100.00;100713.75;4992751;28;20031;-78
2024/04/03 00:02:51;;;;;;;10.77;3.40;;;;;;;7.67;100.00;100715.56;4992986;28;20045;-77
2024/04/03 00:05:16;;;;;;;19.25;3.25;;;;;;;7.67;100.00;100707.63;4991154;28;20047;-79
2024/04/03 00:07:41;;;;;;;15.70;3.45;;;;;;;7.65;100.00;100704.25;4994665;28;20110;-78
2024/04/03 00:10:07;;;;;;;13.65;3.10;;;;;;;7.63;100.00;100706.16;4996858;28;20360;-78
2024/04/03 00:12:32;;;;;;;11.25;3.08;;;;;;;7.60;100.00;100701.97;4996558;28;20551;-77
2024/04/03 00:14:58;;;;;;;11.60;3.10;;;;;;;7.60;100.00;100701.97;4997037;28;20085;-77
2024/04/03 00:17:23;;;;;;;7.05;2.83;;;;;;;7.61;100.00;100700.16;4996402;28;20041;-79
2024/04/03 00:19:48;;;;;;;10.43;3.30;;;;;;;7.61;100.00;100693.06;4996781;28;20031;-77
2024/04/03 00:22:13;;;;;;;9.82;3.58;;;;;;;7.62;100.00;100694.75;4996714;28;20042;-78
2024/04/03 00:24:39;;;;;;;8.45;3.28;;;;;;;7.63;100.00;100692.94;4996352;28;20398;-78
2024/04/03 00:27:05;;;;;;;12.50;4.00;;;;;;;7.62;100.00;100689.44;4997000;28;20431;-78
2024/04/03 00:29:30;;;;;;;12.80;4.00;;;;;;;7.61;100.00;100685.09;4996153;28;20034;-78
2024/04/03 00:31:55;;;;;;;12.40;4.57;;;;;;;7.62;100.00;100692.09;4996405;28;20038;-78
2024/04/03 00:34:20;;;;;;;13.23;4.72;;;;;;;7.61;100.00;100681.63;4995931;28;20065;-79
2024/04/03 00:36:46;;;;;;;13.23;5.72;;;;;;;7.61;100.00;100682.47;4996620;28;20034;-79
2024/04/03 00:39:11;;;;;;;19.35;6.70;;;;;;;7.60;100.00;100686.09;4996360;28;20054;-79
2024/04/03 00:41:36;;;;;;;19.52;8.45;;;;;;;7.62;100.00;100681.50;4994281;28;20038;-78
2024/04/03 00:44:02;;;;;;;20.88;8.40;;;;;;;7.62;100.00;100676.22;4996213;28;20414;-78
2024/04/03 00:46:27;;;;;;;20.10;9.85;;;;;;;7.63;100.00;100677.03;4995983;28;20138;-79
2024/04/03 00:48:54;;;;;;;18.50;9.35;;;;;;;7.63;100.00;100669.97;4994948;28;20033;-79
2024/04/03 00:51:20;;;;;;;18.77;9.98;;;;;;;7.66;100.00;100671.50;4994668;28;20402;-78
2024/04/03 00:53:46;;;;;;;23.20;11.52;;;;;;;7.71;100.00;100669.31;4995837;28;20050;-79
2024/04/03 00:56:13;;;;;;;28.20;13.13;;;;;;;7.73;100.00;100662.94;4996165;28;20041;-79
2024/04/03 00:58:38;;;;;;;30.55;14.65;;;;;;;7.78;100.00;100659.91;4995368;28;20034;-78
2024/04/03 01:01:04;;;;;;;28.65;13.35;;;;;;;7.82;100.00;100666.63;4995985;28;20482;-78
2024/04/03 01:03:29;;;;;;;31.65;14.32;;;;;;;7.84;100.00;100659.41;4995325;28;20030;-81
2024/04/03 01:06:02;;;;;;;36.25;15.18;;;;;;;7.88;100.00;100652.06;4994832;28;20445;-81
2024/04/03 01:08:28;;;;;;;30.38;14.98;;;;;;;7.91;100.00;100652.66;4994368;28;20464;-81
2024/04/03 01:10:55;;;;;;;32.67;15.40;;;;;;;7.92;100.00;100638.41;4996076;28;20045;-80
2024/04/03 01:13:20;;;;;;;33.13;15.82;;;;;;;7.97;100.00;100634.56;4995840;28;20030;-79
2024/04/03 01:15:45;;;;;;;35.75;17.33;;;;;;;7.98;100.00;100631.78;4995514;28;20035;-80
2024/04/03 01:18:11;;;;;;;41.20;17.90;;;;;;;8.00;100.00;100624.56;4995410;28;20049;-79
2024/04/03 01:20:36;;;;;;;35.75;18.30;;;;;;;8.02;100.00;100619.97;4994041;28;20483;-78
2024/04/03 01:23:01;;;;;;;37.47;17.10;;;;;;;8.04;100.00;100622.47;4995608;28;20034;-78
2024/04/03 01:25:27;;;;;;;36.50;18.45;;;;;;;8.06;100.00;100621.41;4994139;28;20038;-80
2024/04/03 01:27:52;;;;;;;49.67;19.08;;;;;;;8.06;100.00;100621.41;4995555;28;20030;-78
2024/04/03 01:30:17;;;;;;;37.90;17.70;;;;;;;8.07;100.00;100611.63;4995458;28;20041;-78
2024/04/03 01:32:44;;;;;;;42.10;18.58;;;;;;;8.09;100.00;100613.19;4995134;28;20134;-77
2024/04/03 01:35:10;;;;;;;38.70;18.02;;;;;;;8.10;100.00;100609.53;4994202;28;20026;-77
2024/04/03 01:37:35;;;;;;;38.95;17.20;;;;;;;8.11;100.00;100605.94;4995363;28;20077;-79
2024/04/03 01:40:01;;;;;;;41.75;16.58;;;;;;;8.13;100.00;100597.84;4995544;28;20087;-80
2024/04/03 01:42:27;;;;;;;37.35;16.48;;;;;;;8.14;100.00;100604.03;4995430;28;20386;-78
2024/04/03 01:44:52;;;;;;;33.13;15.07;;;;;;;8.15;100.00;100589.78;4994969;28;20519;-78
2024/04/03 01:47:17;;;;;;;38.67;16.35;;;;;;;8.15;100.00;100588.00;4995150;28;20061;-79
2024/04/03 01:49:43;;;;;;;33.42;15.13;;;;;;;8.17;100.00;100580.75;4994685;28;20076;-77
2024/04/03 01:52:08;;;;;;;34.10;14.60;;;;;;;8.18;100.00;100584.22;4994949;28;20529;-78
2024/04/03 01:54:33;;;;;;;32.60;13.32;;;;;;;8.19;100.00;100585.91;4995037;28;20045;-79
2024/04/03 01:56:59;;;;;;;24.88;11.18;;;;;;;8.20;100.00;100579.66;4994771;28;20512;-77
2024/04/03 01:59:24;;;;;;;23.27;10.80;;;;;;;8.20;100.00;100582.28;4995041;28;20031;-77
2024/04/03 02:01:49;;;;;;;19.73;9.10;;;;;;;8.18;100.00;100566.53;4994895;28;20034;-78
2024/04/03 02:04:15;;;;;;;20.40;8.45;;;;;;;8.18;100.00;100566.53;4993560;28;20452;-77
2024/04/03 02:06:40;;;;;;;17.77;7.88;;;;;;;8.17;100.00;100561.34;4994397;28;20038;-81
2024/04/03 02:09:06;;;;;;;19.33;6.00;;;;;;;8.19;100.00;100562.06;4994831;28;20034;-77
2024/04/03 02:11:31;;;;;;;21.20;6.13;;;;;;;8.16;100.00;100552.53;4994618;28;20124;-78
2024/04/03 02:13:57;;;;;;;14.45;6.07;;;;;;;8.16;100.00;100555.19;4994241;28;20124;-80
2024/04/03 02:16:24;;;;;;;17.60;5.13;;;;;;;8.17;100.00;100548.94;4994715;28;20414;-78
2024/04/03 02:18:50;;;;;;;14.20;5.20;;;;;;;8.15;100.00;100548.25;4994190;28;20038;-81
2024/04/03 02:21:15;;;;;;;12.43;4.88;;;;;;;8.12;100.00;100541.38;4994577;28;20081;-78
2024/04/03 02:23:40;;;;;;;14.52;4.50;;;;;;;8.15;100.00;100544.72;4992907;28;20065;-80
2024/04/03 02:26:06;;;;;;;12.93;4.32;;;;;;;8.17;100.00;100537.50;4993197;28;20125;-80
2024/04/03 02:28:31;;;;;;;14.50;4.80;;;;;;;8.14;100.00;100532.47;4994472;28;20519;-80
2024/04/03 02:31:00;;;;;;;13.50;4.25;;;;;;;8.14;100.00;100537.75;4993354;28;20531;-79
2024/04/03 02:33:27;;;;;;;16.27;4.72;;;;;;;8.13;100.00;100523.66;4994216;28;20042;-81
2024/04/03 02:35:52;;;;;;;10.63;4.00;;;;;;;8.11;100.00;100526.44;4993698;28;20034;-79
2024/04/03 02:38:18;;;;;;;11.05;4.75;;;;;;;8.09;100.00;100524.88;4993941;28;20030;-80
2024/04/03 02:40:43;;;;;;;13.63;4.32;;;;;;;8.08;100.00;100521.41;4994117;28;20121;-80
2024/04/03 02:43:08;;;;;;;13.68;4.65;;;;;;;8.09;100.00;100519.59;4993900;28;20387;-80
2024/04/03 02:45:34;;;;;;;11.57;4.25;;;;;;;8.06;100.00;100515.41;4994377;28;20531;-79
2024/04/03 02:47:59;;;;;;;11.30;3.70;;;;;;;8.04;100.00;100509.38;4993695;28;20046;-80
2024/04/03 02:50:25;;;;;;;14.07;4.32;;;;;;;8.05;100.00;100513.72;4994008;28;20030;-80
2024/04/03 02:52:51;;;;;;;8.50;3.17;;;;;;;8.01;100.00;100504.34;4993253;28;20062;-81
2024/04/03 02:55:16;;;;;;;10.13;3.08;;;;;;;8.01;100.00;100508.81;4994014;28;20027;-78
2024/04/03 02:57:42;;;;;;;11.35;3.15;;;;;;;7.97;100.00;100504.75;4993388;28;20594;-81
2024/04/03 03:00:08;;;;;;;11.05;2.83;;;;;;;7.94;100.00;100503.19;4993976;28;20026;-81
2024/04/03 03:02:33;;;;;;;10.57;3.10;;;;;;;7.92;100.00;100499.84;4993655;28;20042;-81
2024/04/03 03:04:58;;;;;;;10.13;2.50;;;;;;;7.88;100.00;100496.63;4993420;28;20038;-82
2024/04/03 03:07:24;;;;;;;9.80;2.80;;;;;;;7.90;100.00;100504.44;4993489;28;20391;-81
2024/04/03 03:09:49;;;;;;;6.75;2.70;;;;;;;7.88;100.00;100491.31;4993375;28;20030;-81
2024/04/03 03:12:14;;;;;;;10.23;2.75;;;;;;;7.84;100.00;100492.53;4993709;28;20038;-80
2024/04/03 03:14:39;;;;;;;5.28;2.20;;;;;;;7.81;100.00;100495.44;4993458;28;20030;-81
2024/04/03 03:17:05;;;;;;;9.48;2.67;;;;;;;7.80;100.00;100490.28;4992923;28;20030;-81
2024/04/03 03:19:30;;;;;;;7.93;2.40;;;;;;;7.78;100.00;100479.81;4993687;28;20077;-82
2024/04/03 03:21:55;;;;;;;6.35;1.95;;;;;;;7.75;100.00;100486.19;4991905;28;20125;-81
2024/04/03 03:24:23;;;;;;;6.60;1.98;;;;;;;7.72;100.00;100486.47;4993488;28;20475;-82
2024/04/03 03:26:48;;;;;;;6.72;1.67;;;;;;;7.70;100.00;100474.31;4993069;28;20030;-82
2024/04/03 03:29:14;;;;;;;6.63;1.98;;;;;;;7.71;100.00;100473.34;4993248;28;20089;-81
2024/04/03 03:31:39;;;;;;;6.00;2.25;;;;;;;7.69;100.00;100475.31;4993452;28;20076;-81
2024/04/03 03:34:04;;;;;;;5.32;2.00;;;;;;;7.68;100.00;100470.97;4993300;28;20122;-81
2024/04/03 03:36:29;;;;;;;4.82;1.80;;;;;;;7.66;100.00;100468.44;4993336;28;20037;-80
2024/04/03 03:38:55;;;;;;;3.28;1.67;;;;;;;7.66;100.00;100467.59;4992682;28;20030;-81
2024/04/03 03:41:20;;;;;;;7.53;1.90;;;;;;;7.64;100.00;100462.41;4992890;28;20474;-80
2024/04/03 03:43:46;;;;;;;7.75;1.73;;;;;;;7.63;100.00;100460.75;4992855;28;20467;-81
2024/04/03 03:46:11;;;;;;;6.50;1.80;;;;;;;7.59;100.00;100449.56;4993144;28;20041;-81
2024/04/03 03:54:04;;;;;;;7.07;2.20;;;;;;;7.53;100.00;100443.97;4991596;28;20359;-79
2024/04/03 03:56:30;;;;;;;4.55;2.10;;;;;;;7.53;100.00;100443.97;4992820;28;20030;-79
2024/04/03 03:58:55;;;;;;;7.47;2.60;;;;;;;7.56;100.00;100436.59;4992781;28;20441;-80
2024/04/03 04:01:20;;;;;;;6.63;1.80;;;;;;;7.54;100.00;100433.25;4993170;28;20490;-80
2024/04/03 04:03:46;;;;;;;7.75;2.38;;;;;;;7.52;100.00;100434.34;4993159;28;20034;-80
2024/04/03 04:06:11;;;;;;;6.05;2.17;;;;;;;7.50;100.00;100433.63;4992609;28;20046;-80
2024/04/03 04:08:37;;;;;;;5.97;2.35;;;;;;;7.46;100.00;100425.09;4993091;28;20038;-80
2024/04/03 04:11:03;;;;;;;4.72;1.95;;;;;;;7.44;100.00;100426.22;4992242;28;20042;-80
2024/04/03 04:13:29;;;;;;;7.22;2.83;;;;;;;7.41;100.00;100422.00;4992845;28;20348;-79
2024/04/03 04:15:58;;;;;;;8.63;2.40;;;;;;;7.47;100.00;100425.97;4992584;28;20041;-78
2024/04/03 04:18:23;;;;;;;9.85;2.72;;;;;;;7.47;100.00;100424.13;4992959;28;20030;-78
2024/04/03 04:20:56;;;;;;;7.60;2.80;;;;;;;7.49;100.00;100419.53;4992948;28;20041;-80
2024/04/03 04:23:25;;;;;;;5.50;2.60;;;;;;;7.47;100.00;100421.50;4992710;28;20410;-80
2024/04/03 04:25:55;;;;;;;11.10;3.05;;;;;;;7.44;100.00;100412.97;4993039;28;20066;-80
2024/04/03 04:28:21;;;;;;;7.30;3.37;;;;;;;7.43;100.00;100413.94;4992807;28;20040;-80
2024/04/03 04:30:48;;;;;;;13.98;4.10;;;;;;;7.42;100.00;100415.75;4992875;28;20026;-79
2024/04/03 04:33:13;;;;;;;9.80;3.80;;;;;;;7.42;100.00;100423.69;4992220;28;20046;-78
2024/04/03 04:35:39;;;;;;;8.57;3.63;;;;;;;7.42;100.00;100413.13;4992743;28;20040;-80
2024/04/03 04:38:04;;;;;;;9.90;3.72;;;;;;;7.40;100.00;100413.25;4991901;28;20034;-81
2024/04/03 04:40:29;;;;;;;7.28;3.58;;;;;;;7.40;100.00;100412.38;4992556;28;20042;-81
2024/04/03 04:42:55;;;;;;;15.15;3.85;;;;;;;7.39;100.00;100408.91;4992660;28;20058;-80
2024/04/03 04:45:20;;;;;;;10.68;3.88;;;;;;;7.45;100.00;100404.06;4992712;28;20042;-80
2024/04/03 04:47:46;;;;;;;10.35;3.90;;;;;;;7.48;100.00;100401.16;4991407;28;20038;-79
2024/04/03 04:50:11;;;;;;;12.73;3.63;;;;;;;7.53;100.00;100409.56;4992409;28;20089;-79
2024/04/03 04:52:36;;;;;;;11.05;4.05;;;;;;;7.55;100.00;100411.13;4992547;28;20066;-79
2024/04/03 04:55:03;;;;;;;9.73;3.47;;;;;;;7.55;100.00;100407.59;4994577;28;20129;-80
2024/04/03 04:57:28;;;;;;;12.65;3.97;;;;;;;7.58;100.00;100412.63;4994861;28;20360;-78
2024/04/03 04:59:53;;;;;;;11.80;3.40;;;;;;;7.61;100.00;100404.44;4996232;28;20046;-80
2024/04/03 05:02:18;;;;;;;13.18;3.80;;;;;;;7.61;100.00;100411.53;4995529;28;20039;-79
2024/04/03 05:04:44;;;;;;;14.77;4.32;;;;;;;7.63;100.00;100407.81;4995873;28;20031;-79
2024/04/03 05:07:09;;;;;;;11.73;4.80;;;;;;;7.64;100.00;100411.28;4994115;28;20042;-79
2024/04/03 05:09:34;;;;;;;10.05;4.28;;;;;;;7.67;100.00;100408.38;4996050;28;20034;-79
2024/04/03 05:12:00;;;;;;;12.48;4.72;;;;;;;7.65;100.00;100397.91;4995481;28;20158;-83
2024/04/03 05:14:26;;;;;;;11.55;5.03;;;;;;;7.66;100.00;100398.75;4995786;28;20069;-80
2024/04/03 05:16:51;;;;;;;16.85;6.07;;;;;;;7.67;100.00;100403.06;4995779;28;20031;-81
2024/04/03 05:19:16;;;;;;;13.02;5.93;;;;;;;7.66;100.00;100393.44;4994228;28;20046;-80
2024/04/03 05:21:42;;;;;;;15.98;6.70;;;;;;;7.67;100.00;100385.38;4994476;28;20042;-79
2024/04/03 05:24:07;;;;;;;13.52;6.60;;;;;;;7.68;100.00;100383.59;4995307;28;20037;-81
2024/04/03 05:26:36;;;;;;;19.13;7.15;;;;;;;7.68;100.00;100383.59;4994291;28;20117;-79
2024/04/03 05:29:01;;;;;;;14.02;7.25;;;;;;;7.69;100.00;100380.81;4995130;28;20038;-80
2024/04/03 05:31:27;;;;;;;16.48;7.88;;;;;;;7.69;100.00;100383.44;4995380;28;20368;-79
2024/04/03 05:33:52;;;;;;;17.00;8.75;;;;;;;7.73;100.00;100378.72;4995581;28;20058;-78
2024/04/03 05:36:18;;;;;;;21.50;8.70;;;;;;;7.76;100.00;100381.09;4993723;28;20041;-77
2024/04/03 05:38:43;;;;;;;19.13;7.97;;;;;;;7.79;100.00;100380.00;4993968;28;20030;-79
2024/04/03 05:41:08;;;;;;;20.08;8.65;;;;;;;7.80;100.00;100377.22;4993566;28;20038;-80
2024/04/03 05:43:34;;;;;;;23.70;10.23;;;;;;;7.82;100.00;100375.25;4995341;28;20034;-79
2024/04/03 05:46:00;;;;;;;16.65;8.27;;;;;;;7.87;100.00;100375.72;4995189;28;20034;-79
2024/04/03 05:48:27;;;;;;;20.88;8.93;;;;;;;7.90;100.00;100372.81;4994839;28;20407;-80
2024/04/03 05:51:18;;;;;;;20.48;9.65;;;;;;;7.93;100.00;100367.25;4995595;28;20035;-80
2024/04/03 05:53:44;;;;;;;20.48;8.55;;;;;;;7.98;100.00;100369.50;4991716;28;20577;-80
2024/04/03 05:56:09;;;;;;;20.25;8.50;;;;;;;8.01;100.00;100371.03;4994556;28;20041;-80
2024/04/03 05:58:35;;;;;;;15.93;7.78;;;;;;;8.05;100.00;100367.16;4995012;28;20490;-80
2024/04/03 06:01:01;;;;;;;13.73;7.65;;;;;;;8.08;100.00;100366.88;4994935;28;20472;-80
2024/04/03 06:03:26;;;;;;;14.75;7.95;;;;;;;8.12;100.00;100366.47;4993267;28;20034;-80
2024/04/03 06:05:59;;;;;;;16.23;8.65;;;;;;;8.18;100.00;100372.19;4993946;28;20041;-80
2024/04/03 06:08:25;;;;;;;21.02;9.68;;;;;;;8.23;100.00;100375.31;4994452;28;20291;-81
2024/04/03 06:10:51;;;;;;;14.02;7.70;;;;;;;8.26;100.00;100373.19;4994755;28;20467;-81
2024/04/03 06:13:17;;;;;;;14.48;7.53;;;;;;;8.29;100.00;100374.75;4994303;28;20038;-80
2024/04/03 06:15:43;;;;;;;13.52;7.35;;;;;;;8.34;100.00;100366.38;4994611;28;20475;-81
2024/04/03 06:18:08;;;;;;;15.27;7.18;;;;;;;8.37;100.00;100374.06;4993886;28;20091;-80
2024/04/03 06:20:34;;;;;;;14.93;7.30;;;;;;;8.40;100.00;100374.63;4994095;28;20101;-79
2024/04/03 06:22:59;;;;;;;12.00;6.50;;;;;;;8.45;100.00;100372.44;4994639;28;20034;-81
2024/04/03 06:25:25;;;;;;;14.10;6.60;;;;;;;8.47;100.00;100367.00;4993975;28;20038;-81
2024/04/03 06:27:52;;;;;;;19.83;6.95;;;;;;;8.52;100.00;100364.78;4994604;28;20535;-80
2024/04/03 06:30:17;;;;;;;11.88;6.20;;;;;;;8.57;100.00;100361.72;4994007;28;20089;-80
2024/04/03 06:32:43;;;;;;;11.18;6.40;;;;;;;8.64;100.00;100357.53;4994111;28;20026;-78
2024/04/03 06:35:08;;;;;;;17.65;6.93;;;;;;;8.67;100.00;100349.28;4994182;28;20108;-83
2024/04/03 06:37:34;;;;;;;14.25;6.32;;;;;;;8.73;100.00;100351.41;4994331;28;20085;-77
2024/04/03 06:39:59;;;;;;;15.05;6.40;;;;;;;8.76;100.00;100348.50;4992707;28;20037;-77
2024/04/03 06:42:25;;;;;;;13.73;6.13;;;;;;;8.78;100.00;100348.34;4993442;28;20068;-78
2024/04/03 06:44:52;;;;;;;11.73;6.30;;;;;;;8.87;100.00;100347.50;4994056;28;20038;-79
2024/04/03 06:47:18;;;;;;;13.35;5.65;;;;;;;8.88;100.00;100348.31;4995972;28;20091;-78
2024/04/03 06:49:43;;;;;;;13.00;5.60;;;;;;;8.92;100.00;100347.91;5013716;28;20474;-80
2024/04/03 06:52:08;;;;;;;14.05;6.07;;;;;;;8.92;100.00;100347.91;5002080;28;20521;-81
2024/04/03 06:54:34;;;;;;;10.07;5.30;;;;;;;8.96;100.00;100349.31;4989443;28;20053;-82
2024/04/03 06:56:59;;;;;;;8.05;4.93;;;;;;;8.92;100.00;100342.59;4991463;28;20072;-83
2024/04/03 06:59:25;;;;;;;11.23;5.90;;;;;;;8.93;100.00;100344.28;4990703;28;20121;-84
2024/04/03 07:01:50;;;;;;;16.13;6.45;;;;;;;8.97;100.00;100336.88;4991055;28;20066;-84
2024/04/03 07:04:15;;;;;;;13.07;5.60;;;;;;;8.99;100.00;100337.59;4990514;28;20070;-83
2024/04/03 07:06:41;;;;;;;10.95;5.30;;;;;;;8.99;100.00;100341.06;4989486;28;20088;-87
2024/04/03 07:09:07;;;;;;;13.75;5.43;;;;;;;9.02;100.00;100328.47;4991272;28;20085;-80
2024/04/03 07:11:33;;;;;;;13.30;5.40;;;;;;;9.03;100.00;100336.31;4990098;28;20046;-82
2024/04/03 07:13:58;;;;;;;12.30;5.80;;;;;;;9.03;100.00;100325.69;4990502;28;20046;-81
2024/04/03 07:16:24;;;;;;;11.05;5.50;;;;;;;9.09;100.00;100324.28;4988703;28;20117;-79
2024/04/03 07:18:56;;;;;;;14.98;6.20;;;;;;;9.08;100.00;100319.97;4990274;28;20054;-81
2024/04/03 07:21:21;;;;;;;13.70;5.82;;;;;;;9.12;100.00;100330.16;4990207;28;20368;-81
2024/04/03 07:23:47;;;;;;;14.35;5.97;;;;;;;9.16;100.00;100323.56;4990756;28;20040;-81
2024/04/03 07:26:12;;;;;;;7.18;5.38;;;;;;;9.23;100.00;100325.69;4989260;28;20037;-77
2024/04/03 07:28:38;;;;;;;12.23;6.38;;;;;;;9.30;100.00;100324.09;4990190;28;20116;-79
2024/04/03 07:31:03;;;;;;;12.00;6.80;;;;;;;9.40;100.00;100330.22;4989908;28;20129;-80
2024/04/03 07:33:29;;;;;;;12.48;5.65;;;;;;;9.46;100.00;100319.03;4989977;28;20042;-79
2024/04/03 07:35:54;;;;;;;10.00;6.32;;;;;;;9.49;100.00;100312.59;4990052;28;20376;-82
2024/04/03 07:38:20;;;;;;;8.10;5.40;;;;;;;9.54;100.00;100321.00;4990015;28;20091;-76
2024/04/03 07:40:50;;;;;;;13.80;5.10;;;;;;;9.59;100.00;100321.38;4990339;28;20177;-81
2024/04/03 07:43:15;;;;;;;10.20;5.40;;;;;;;9.60;100.00;100323.06;4989955;28;20034;-80
2024/04/03 07:45:40;;;;;;;8.85;4.93;;;;;;;9.62;100.00;100318.44;4989648;28;20537;-81
2024/04/03 07:48:07;;;;;;;8.52;4.70;;;;;;;9.64;100.00;100310.31;4990444;28;20502;-81
2024/04/03 07:50:33;;;;;;;9.10;5.78;;;;;;;9.70;100.00;100315.88;4989796;28;20529;-81
2024/04/03 07:52:58;;;;;;;8.85;4.97;;;;;;;9.83;100.00;100312.88;4990081;28;20098;-83
2024/04/03 07:55:23;;;;;;;9.57;4.93;;;;;;;9.87;100.00;100306.28;4989628;28;20031;-82
2024/04/03 07:57:49;;;;;;;7.50;4.38;;;;;;;9.97;100.00;100310.72;4990235;28;20129;-81
2024/04/03 08:00:14;;;;;;;8.52;4.80;;;;;;;10.02;100.00;100305.81;4990404;28;20053;-83
2024/04/03 08:02:41;;;;;;;6.03;3.95;;;;;;;10.15;100.00;100305.44;4989907;28;20402;-83
2024/04/03 08:05:08;;;;;;;6.72;4.30;;;;;;;10.22;100.00;100298.53;4990075;28;20054;-84
2024/04/03 08:07:33;;;;;;;10.27;4.10;;;;;;;10.38;100.00;100298.75;4989584;28;20125;-85
2024/04/03 08:10:04;;;;;;;6.50;3.95;;;;;;;10.44;100.00;100299.16;4988942;28;20129;-84
2024/04/03 08:12:29;;;;;;;7.83;4.00;;;;;;;10.51;100.00;100297.53;4988548;28;20157;-84
2024/04/03 08:14:58;;;;;;;13.15;4.43;;;;;;;10.70;100.00;100288.56;4988758;28;20540;-86
2024/04/03 08:17:24;;;;;;;8.15;4.07;;;;;;;10.84;100.00;100292.47;4989311;28;20053;-81
2024/04/03 08:19:51;;;;;;;4.88;3.40;;;;;;;11.06;100.00;100297.34;4989743;28;20034;-85
2024/04/03 08:22:17;;;;;;;4.38;3.22;;;;;;;11.01;100.00;100298.78;4990068;28;20026;-82
2024/04/03 08:24:42;;;;;;;5.30;3.50;;;;;;;11.09;100.00;100298.84;4989581;28;20058;-87
2024/04/03 08:27:08;;;;;;;5.60;3.20;;;;;;;11.06;100.00;100300.00;4990178;28;20041;-85
2024/04/03 08:29:37;;;;;;;3.97;3.30;;;;;;;10.96;100.00;100298.41;4992062;28;20027;-85
2024/04/03 08:32:16;;;;;;;;;;;;;;;;;;;;;
2024/04/03 08:34:42;;;;;;;3.40;2.90;;;;;;;10.52;100.00;100300.03;4980973;28;20407;-84
2024/04/03 08:37:08;;;;;;;6.80;3.30;;;;;;;10.38;100.00;100296.09;4992355;28;20042;-82
2024/04/03 08:39:34;;;;;;;9.20;3.40;;;;;;;10.31;100.00;100299.47;4986717;28;20530;-84
2024/04/03 08:42:01;;;;;;;6.22;3.70;;;;;;;10.24;100.00;100292.09;4995110;28;20494;-84
2024/04/03 08:44:30;;;;;;;6.32;3.30;;;;;;;10.23;100.00;100289.59;4995263;28;20514;-86
2024/04/03 08:46:56;;;;;;;6.03;3.13;;;;;;;10.35;100.00;100287.59;4996058;28;20034;-84
2024/04/03 08:49:27;;;;;;;4.75;3.28;;;;;;;10.47;100.00;100299.66;4995897;28;20042;-83
2024/04/03 08:52:00;;;;;;;4.53;3.17;;;;;;;10.51;100.00;100294.88;4976286;28;20039;-79
2024/04/03 08:54:27;;;;;;;6.55;3.40;;;;;;;10.53;100.00;100295.56;4976009;28;20402;-83
2024/04/03 08:56:54;;;;;;;3.33;3.10;;;;;;;10.48;100.00;100296.03;4989117;28;20081;-83
2024/04/03 08:59:20;;;;;;;3.83;2.95;;;;;;;10.51;100.00;100293.06;4994271;28;20108;-83
2024/04/03 09:01:50;;;;;;;3.83;3.13;;;;;;;10.62;100.00;100291.16;4995089;28;20387;-84
2024/04/03 09:04:21;;;;;;;4.63;3.10;;;;;;;10.75;100.00;100295.09;4995665;28;20035;-82
2024/04/03 09:06:47;;;;;;;3.13;2.83;;;;;;;11.11;100.00;100284.38;4995305;28;20038;-81
2024/04/03 09:09:21;;;;;;;3.75;2.80;;;;;;;11.37;100.00;100288.03;4993987;28;20277;-84
2024/04/03 09:11:48;;;;;;;3.67;3.08;;;;;;;11.76;100.00;100291.09;4994276;28;20069;-81
2024/04/03 09:14:23;;;;;;;3.17;2.88;;;;;;;12.03;100.00;100293.69;4995147;28;20439;-78
2024/04/03 09:16:48;;;;;;;3.25;2.90;;;;;;;12.00;100.00;100297.50;4994769;28;20035;-77
2024/04/03 09:19:14;;;;;;;3.30;2.83;;;;;;;11.83;100.00;100292.09;4994935;28;20038;-83
2024/04/03 09:21:40;;;;;;;7.35;3.47;;;;;;;11.82;100.00;100300.25;4995519;28;20034;-83
2024/04/03 09:24:06;;;;;;;6.90;3.40;;;;;;;11.74;100.00;100300.22;4993728;28;20429;-79
2024/04/03 09:26:31;;;;;;;4.38;3.00;;;;;;;11.57;100.00;100297.47;4995408;28;20426;-82
2024/04/03 09:28:58;;;;;;;3.85;2.85;;;;;;;11.53;100.00;100296.13;4995334;28;20061;-77
2024/04/03 09:31:24;;;;;;;3.40;3.10;;;;;;;11.49;100.00;100296.59;4995573;28;20061;-84
2024/04/03 09:33:52;;;;;;;3.40;2.97;;;;;;;11.53;100.00;100298.78;4993960;28;20034;-80
2024/04/03 09:36:17;;;;;;;3.30;3.00;;;;;;;11.46;100.00;100308.41;4995432;28;20037;-81
2024/04/03 09:38:43;;;;;;;5.18;4.32;;;;;;;11.24;100.00;100301.75;4994957;28;20437;-83
2024/04/03 09:41:11;;;;;;;6.18;3.90;;;;;;;11.28;100.00;100311.94;4992656;28;20478;-83
2024/04/03 09:43:38;;;;;;;4.25;3.90;;;;;;;11.42;100.00;100301.69;4995199;28;20031;-83
2024/04/03 09:46:09;;;;;;;5.18;4.03;;;;;;;11.50;100.00;100293.78;4995276;28;20121;-79
2024/04/03 09:48:38;;;;;;;4.28;3.78;;;;;;;11.62;100.00;100308.47;4995712;28;20065;-81
2024/04/03 09:51:04;;;;;;;9.80;4.53;;;;;;;11.61;100.00;100298.00;4995465;28;20113;-81
2024/04/03 09:53:30;;;;;;;4.60;4.20;;;;;;;11.70;100.00;100302.34;4993427;28;20133;-82
2024/04/03 09:55:56;;;;;;;4.95;3.80;;;;;;;11.83;100.00;100301.91;4994538;28;20030;-83
2024/04/03 09:58:26;;;;;;;4.82;4.10;;;;;;;12.01;100.00;100307.19;4994937;28;20041;-82
2024/04/03 10:00:54;;;;;;;4.85;4.32;;;;;;;12.08;100.00;100307.38;4977790;28;20037;-86
2024/04/03 10:03:26;;;;;;;5.13;4.13;;;;;;;11.93;100.00;100304.50;4993544;28;20523;-84
2024/04/03 10:06:03;;;;;;;4.78;4.05;;;;;;;11.62;100.00;100302.31;4993570;28;20045;-85
2024/04/03 10:08:39;;;;;;;4.22;3.85;;;;;;;11.47;100.00;100297.59;4994963;28;20066;-83
2024/04/03 10:11:12;;;;;;;5.15;4.65;;;;;;;11.36;100.00;100299.69;4994895;28;20031;-85
2024/04/03 10:13:39;;;;;;;7.45;4.57;;;;;;;11.42;100.00;100299.03;4994501;28;20098;-82
2024/04/03 10:16:06;;;;;;;6.18;5.07;;;;;;;11.52;100.00;100299.78;4994856;28;20038;-82
2024/04/03 10:18:58;;;;;;;5.80;5.20;;;;;;;11.49;100.00;100307.25;4994749;28;20095;-83
2024/04/03 10:21:25;;;;;;;5.30;4.75;;;;;;;11.42;100.00;100307.03;4993795;28;20538;-80
2024/04/03 10:23:50;;;;;;;5.90;4.93;;;;;;;11.43;100.00;100303.38;4993156;28;20030;-80
2024/04/03 10:26:18;;;;;;;5.93;5.32;;;;;;;11.52;100.00;100294.44;4994185;28;20031;-83
2024/04/03 10:28:45;;;;;;;5.95;5.03;;;;;;;11.59;100.00;100297.31;4994096;28;20038;-86
2024/04/03 10:31:17;;;;;;;4.97;4.47;;;;;;;11.67;100.00;100297.34;4995193;28;20048;-90
2024/04/03 10:33:42;;;;;;;8.38;5.13;;;;;;;11.62;100.00;100297.81;4994207;28;20030;-87
2024/04/03 10:36:08;;;;;;;5.10;4.68;;;;;;;11.60;100.00;100297.16;4995196;28;20117;-89
2024/04/03 10:38:35;;;;;;;5.68;4.80;;;;;;;11.52;100.00;100299.78;4994322;28;20397;-81
2024/04/03 10:41:01;;;;;;;6.45;4.80;;;;;;;11.57;100.00;100293.97;4993643;28;20030;-80
2024/04/03 10:43:26;;;;;;;4.57;4.18;;;;;;;11.54;100.00;100289.81;4994040;28;20505;-83
2024/04/03 10:45:53;;;;;;;4.53;3.90;;;;;;;11.66;100.00;100295.69;4976749;28;20038;-85
2024/04/03 10:48:23;;;;;;;4.13;3.72;;;;;;;11.65;100.00;100292.19;4972331;28;20078;-83
2024/04/03 10:50:49;;;;;;;4.90;4.00;;;;;;;11.73;100.00;100295.88;4970883;28;20039;-81
2024/04/03 10:53:14;;;;;;;4.57;4.07;;;;;;;11.82;100.00;100292.25;4971871;28;20607;-83
2024/04/03 10:55:41;;;;;;;5.13;3.67;;;;;;;11.73;100.00;100295.88;4971870;28;20191;-81
2024/04/03 10:58:08;;;;;;;4.93;4.00;;;;;;;11.64;100.00;100295.00;4970407;28;20050;-82
2024/04/03 11:00:35;;;;;;;4.00;3.60;;;;;;;11.57;100.00;100292.16;4971608;28;20110;-83
2024/04/03 11:03:04;;;;;;;4.38;3.88;;;;;;;11.47;100.00;100291.44;4985634;28;20038;-83
2024/04/03 11:05:31;;;;;;;4.47;4.07;;;;;;;11.58;100.00;100287.66;4992145;28;20050;-82
2024/04/03 11:07:57;;;;;;;5.05;3.97;;;;;;;11.58;100.00;100282.31;4990324;28;20505;-81
2024/04/03 11:10:24;;;;;;;5.55;3.90;;;;;;;11.54;100.00;100286.28;4990881;28;20030;-82
2024/04/03 11:12:50;;;;;;;4.50;4.05;;;;;;;11.56;100.00;100290.47;4990664;28;20045;-83
2024/04/03 11:15:24;;;;;;;4.95;4.10;;;;;;;11.62;100.00;100289.00;4991091;28;20058;-83
2024/04/03 11:17:49;;;;;;;4.35;3.97;;;;;;;11.63;100.00;100296.00;4990386;28;20493;-86
2024/04/03 11:20:15;;;;;;;4.78;4.35;;;;;;;11.65;100.00;100296.69;4990314;28;20122;-82